createdAt,value
2019-06-20T00:01:44.242Z,100825.73
2019-06-20T00:04:32.564Z,100832.40
2019-06-20T00:07:20.040Z,100846.80
2019-06-20T00:10:07.770Z,100849.20
2019-06-20T00:13:00.549Z,100857.84
2019-06-20T00:15:43.438Z,100866.60
2019-06-20T00:18:31.118Z,100874.90
2019-06-20T00:21:19.226Z,100875.11
2019-06-20T00:24:07.178Z,100856.73
2019-06-20T00:26:55.310Z,100868.20
2019-06-20T00:29:42.896Z,100865.69
2019-06-20T00:32:31.167Z,100869.70
2019-06-20T00:35:19.122Z,100875.05
2019-06-20T00:38:06.892Z,100878.80
2019-06-20T00:40:55.040Z,100882.94
2019-06-20T00:43:42.850Z,100877.02
2019-06-20T00:46:30.515Z,100886.88
2019-06-20T00:49:18.367Z,100881.24
2019-06-20T00:52:06.358Z,100872.36
2019-06-20T00:54:54.589Z,100862.02
2019-06-20T00:57:42.523Z,100868.98
2019-06-20T01:00:30.284Z,100863.84
2019-06-20T01:03:17.888Z,100860.24
2019-06-20T01:06:05.548Z,100853.80
2019-06-20T01:08:53.957Z,100864.26
2019-06-20T01:11:41.695Z,100865.98
2019-06-20T01:14:29.937Z,100861.90
2019-06-20T01:17:18.211Z,100861.98
2019-06-20T01:20:06.230Z,100859.67
2019-06-20T01:22:54.074Z,100865.27
2019-06-20T01:25:42.265Z,100854.73
2019-06-20T01:28:30.091Z,100845.56
2019-06-20T01:31:17.980Z,100837.81
2019-06-20T01:34:05.683Z,100842.56
2019-06-20T01:36:53.195Z,100841.94
2019-06-20T01:39:41.446Z,100836.95
2019-06-20T01:42:29.523Z,100842.09
2019-06-20T01:45:18.045Z,100837.92
2019-06-20T01:48:06.158Z,100854.89
2019-06-20T01:50:53.661Z,100853.75
2019-06-20T01:53:41.889Z,100849.73
2019-06-20T01:56:29.858Z,100840.66
2019-06-20T01:59:18.118Z,100843.92
2019-06-20T02:02:06.124Z,100839.21
2019-06-20T02:04:54.045Z,100833.28
2019-06-20T02:07:41.729Z,100831.77
2019-06-20T02:10:29.231Z,100833.68
2019-06-20T02:13:17.476Z,100836.36
2019-06-20T02:16:05.093Z,100830.06
2019-06-20T02:18:52.820Z,100855.00
2019-06-20T02:21:40.265Z,100851.77
2019-06-20T02:24:27.979Z,100847.27
2019-06-20T02:27:15.610Z,100844.88
2019-06-20T02:30:04.307Z,100857.39
2019-06-20T02:32:51.658Z,100848.22
2019-06-20T02:35:39.947Z,100843.50
2019-06-20T02:38:28.282Z,100847.43
2019-06-20T02:41:16.337Z,100843.90
2019-06-20T02:44:05.023Z,100843.90
2019-06-20T02:46:52.636Z,100849.19
2019-06-20T02:49:40.355Z,100842.96
2019-06-20T02:52:27.951Z,100849.30
2019-06-20T02:55:15.959Z,100851.50
2019-06-20T02:58:03.492Z,100850.97
2019-06-20T03:00:56.917Z,100843.23
2019-06-20T03:03:44.801Z,100850.00
2019-06-20T03:06:32.509Z,100846.11
2019-06-20T03:09:20.218Z,100855.95
2019-06-20T03:12:07.763Z,100859.00
2019-06-20T03:14:58.747Z,100866.17
2019-06-20T03:17:43.925Z,100865.69
2019-06-20T03:20:31.603Z,100869.50
2019-06-20T03:23:19.201Z,100868.27
2019-06-20T03:26:07.398Z,100873.88
2019-06-20T03:28:55.543Z,100877.80
2019-06-20T03:31:43.094Z,100886.31
2019-06-20T03:34:30.792Z,100883.52
2019-06-20T03:37:19.045Z,100891.27
2019-06-20T03:40:06.995Z,100894.30
2019-06-20T03:42:54.471Z,100900.06
2019-06-20T03:45:42.689Z,100894.87
2019-06-20T03:48:30.931Z,100891.79
2019-06-20T03:51:19.410Z,100892.47
2019-06-20T03:54:07.685Z,100896.11
2019-06-20T03:56:55.953Z,100897.44
2019-06-20T03:59:43.661Z,100897.97
2019-06-20T04:02:31.326Z,100890.61
2019-06-20T04:05:19.268Z,100888.95
2019-06-20T04:08:06.942Z,100888.77
2019-06-20T04:10:54.463Z,100897.05
2019-06-20T04:13:42.693Z,100895.81
2019-06-20T04:16:30.276Z,100894.72
2019-06-20T04:19:18.567Z,100895.89
2019-06-20T04:22:06.784Z,100902.19
2019-06-20T04:24:54.802Z,100898.56
2019-06-20T04:27:42.573Z,100912.04
2019-06-20T04:30:30.528Z,100918.05
2019-06-20T04:33:18.491Z,100924.38
2019-06-20T04:36:06.697Z,100930.49
2019-06-20T04:38:54.612Z,100927.20
2019-06-20T04:41:42.475Z,100935.06
2019-06-20T04:44:29.853Z,100936.56
2019-06-20T04:47:17.685Z,100946.13
2019-06-20T04:50:05.432Z,100946.01
2019-06-20T04:52:52.908Z,100955.09
2019-06-20T04:55:41.318Z,100963.86
2019-06-20T04:58:29.937Z,100980.88
2019-06-20T05:01:17.802Z,100969.75
2019-06-20T05:04:05.347Z,100976.81
2019-06-20T05:06:55.456Z,100967.44
2019-06-20T05:09:43.136Z,100969.17
2019-06-20T05:12:31.509Z,100964.45
2019-06-20T05:15:18.952Z,100957.39
2019-06-20T05:18:06.830Z,100958.80
2019-06-20T05:20:54.502Z,100961.63
2019-06-20T05:23:42.100Z,100966.68
2019-06-20T05:26:30.391Z,100969.73
2019-06-20T05:29:18.185Z,100972.95
2019-06-20T05:32:06.390Z,100975.65
2019-06-20T05:34:53.796Z,100979.69
2019-06-20T05:37:41.984Z,100987.22
2019-06-20T05:40:30.211Z,100983.09
2019-06-20T05:43:18.192Z,100982.97
2019-06-20T05:46:10.795Z,100979.20
2019-06-20T05:48:53.798Z,100987.20
2019-06-20T05:51:41.797Z,100983.96
2019-06-20T05:54:29.387Z,100996.05
2019-06-20T05:57:17.242Z,100993.07
2019-06-20T06:00:06.006Z,100990.98
2019-06-20T06:02:53.628Z,100986.31
2019-06-20T06:05:41.706Z,100992.49
2019-06-20T06:08:29.757Z,100995.22
2019-06-20T06:11:17.969Z,100998.50
2019-06-20T06:14:05.462Z,100999.27
2019-06-20T06:16:53.198Z,100994.41
2019-06-20T06:19:40.712Z,100998.69
2019-06-20T06:22:28.937Z,101002.50
2019-06-20T06:25:17.050Z,100988.09
2019-06-20T06:28:04.996Z,101001.03
2019-06-20T06:30:53.097Z,101005.20
2019-06-20T06:33:40.720Z,101017.13
2019-06-20T06:36:28.545Z,101022.89
2019-06-20T06:39:16.330Z,101020.29
2019-06-20T06:42:04.453Z,101019.54
2019-06-20T06:44:52.564Z,101023.61
2019-06-20T06:47:40.166Z,101025.94
2019-06-20T06:50:28.306Z,101032.16
2019-06-20T06:53:15.810Z,101034.25
2019-06-20T06:56:03.299Z,101035.12
2019-06-20T06:58:50.805Z,101040.49
2019-06-20T07:01:39.342Z,101049.79
2019-06-20T07:04:26.794Z,101049.79
2019-06-20T07:07:14.559Z,101050.14
2019-06-20T07:10:02.260Z,101052.36
2019-06-20T07:12:49.995Z,101056.64
2019-06-20T07:15:37.720Z,101056.63
2019-06-20T07:18:25.469Z,101045.82
2019-06-20T07:21:13.230Z,101055.84
2019-06-20T07:24:01.059Z,101051.05
2019-06-20T07:26:49.029Z,101053.40
2019-06-20T07:29:36.995Z,101058.41
2019-06-20T07:32:24.749Z,101056.59
2019-06-20T07:35:12.405Z,101062.47
2019-06-20T07:37:59.912Z,101063.43
2019-06-20T07:40:48.214Z,101062.03
2019-06-20T07:43:35.993Z,101065.22
2019-06-20T07:46:23.859Z,101062.88
2019-06-20T07:49:11.964Z,101067.13
2019-06-20T07:51:59.476Z,101069.59
2019-06-20T07:54:47.303Z,101071.44
2019-06-20T07:57:35.085Z,101069.36
2019-06-20T08:00:22.697Z,101074.30
2019-06-20T08:03:10.573Z,101064.91
2019-06-20T08:05:59.041Z,101068.71
2019-06-20T08:08:46.726Z,101058.72
2019-06-20T08:11:34.337Z,101066.56
2019-06-20T08:14:22.704Z,101063.55
2019-06-20T08:17:10.771Z,101059.48
2019-06-20T08:19:58.329Z,101057.98
2019-06-20T08:22:46.217Z,101057.56
2019-06-20T08:25:33.845Z,101057.66
2019-06-20T08:28:22.295Z,101063.14
2019-06-20T08:31:10.508Z,101067.33
2019-06-20T08:33:59.233Z,101070.86
2019-06-20T08:36:45.566Z,101071.02
2019-06-20T08:39:33.639Z,101081.06
2019-06-20T08:42:21.543Z,101078.72
2019-06-20T08:45:09.245Z,101092.95
2019-06-20T08:47:58.274Z,101083.51
2019-06-20T08:50:45.263Z,101080.05
2019-06-20T08:53:33.250Z,101082.59
2019-06-20T08:56:21.143Z,101086.41
2019-06-20T08:59:23.482Z,101086.69
2019-06-20T09:01:58.741Z,101090.23
2019-06-20T09:04:45.008Z,101082.31
2019-06-20T09:07:32.990Z,101085.78
2019-06-20T09:10:20.970Z,101091.00
2019-06-20T09:13:09.199Z,101087.83
2019-06-20T09:15:56.971Z,101090.95
2019-06-20T09:18:44.895Z,101092.69
2019-06-20T09:21:33.011Z,101083.98
2019-06-20T09:24:21.464Z,101090.62
2019-06-20T09:27:09.530Z,101090.78
2019-06-20T09:29:58.531Z,101086.45
2019-06-20T09:32:46.079Z,101086.67
2019-06-20T09:35:33.933Z,101087.52
2019-06-20T09:38:21.947Z,101090.50
2019-06-20T09:41:09.647Z,101096.11
2019-06-20T09:43:58.558Z,101096.72
2019-06-20T09:46:45.891Z,101096.49
2019-06-20T09:49:33.390Z,101101.33
2019-06-20T09:52:21.613Z,101103.27
2019-06-20T09:55:09.183Z,101103.37
2019-06-20T09:57:58.190Z,101102.27
2019-06-20T10:00:44.663Z,101107.80
2019-06-20T10:03:32.336Z,101107.02
2019-06-20T10:06:20.048Z,101112.58
2019-06-20T10:09:08.553Z,101121.00
2019-06-20T10:11:56.511Z,101116.83
2019-06-20T10:14:45.471Z,101114.70
2019-06-20T10:17:32.051Z,101113.13
2019-06-20T10:20:20.423Z,101118.36
2019-06-20T10:23:08.277Z,101120.98
2019-06-20T10:25:56.008Z,101123.89
2019-06-20T10:28:44.616Z,101121.19
2019-06-20T10:31:31.764Z,101115.13
2019-06-20T10:34:19.282Z,101125.19
2019-06-20T10:37:07.266Z,101127.69
2019-06-20T10:39:56.777Z,101122.34
2019-06-20T10:42:44.441Z,101121.24
2019-06-20T10:45:30.149Z,101123.21
2019-06-20T10:48:17.715Z,101116.85
2019-06-20T10:51:23.599Z,101123.70
2019-06-20T10:54:11.839Z,101123.70
2019-06-20T10:56:59.392Z,101122.79
2019-06-20T10:59:48.440Z,101120.92
2019-06-20T11:02:35.160Z,101119.06
2019-06-20T11:05:23.001Z,101121.37
2019-06-20T11:08:10.676Z,101121.19
2019-06-20T11:10:58.284Z,101129.06
2019-06-20T11:13:46.537Z,101129.53
2019-06-20T11:16:34.270Z,101134.18
2019-06-20T11:19:21.954Z,101129.64
2019-06-20T11:22:10.416Z,101137.72
2019-06-20T11:24:58.237Z,101136.22
2019-06-20T11:27:47.337Z,101143.02
2019-06-20T11:30:48.097Z,101137.63
2019-06-20T11:33:21.760Z,101146.58
2019-06-20T11:36:09.198Z,101148.02
2019-06-20T11:38:57.050Z,101136.30
2019-06-20T11:41:45.270Z,101140.55
2019-06-20T11:44:32.841Z,101143.45
2019-06-20T11:47:20.703Z,101133.50
2019-06-20T11:50:08.244Z,101135.83
2019-06-20T11:52:56.035Z,101138.28
2019-06-20T11:55:44.022Z,101148.27
2019-06-20T11:58:31.883Z,101138.94
2019-06-20T12:01:32.304Z,101153.55
2019-06-20T12:04:09.411Z,101147.32
2019-06-20T12:06:54.853Z,101143.82
2019-06-20T12:09:44.196Z,101141.11
2019-06-20T12:12:30.436Z,101137.17
2019-06-20T12:15:18.188Z,101138.77
2019-06-20T12:18:06.342Z,101137.82
2019-06-20T12:20:54.232Z,101131.28
2019-06-20T12:23:42.523Z,101124.13
2019-06-20T12:26:30.316Z,101124.97
2019-06-20T12:29:17.883Z,101126.75
2019-06-20T12:32:05.534Z,101133.73
2019-06-20T12:34:53.037Z,101131.80
2019-06-20T12:37:40.665Z,101125.51
2019-06-20T12:40:28.572Z,101129.69
2019-06-20T12:43:16.122Z,101114.82
2019-06-20T12:46:03.738Z,101122.36
2019-06-20T12:48:51.486Z,101116.23
2019-06-20T12:51:40.479Z,101117.42
2019-06-20T12:54:29.964Z,101112.86
2019-06-20T12:57:14.360Z,101110.82
2019-06-20T13:00:01.904Z,101111.06
2019-06-20T13:02:49.901Z,101102.19
2019-06-20T13:05:38.467Z,101105.36
2019-06-20T13:08:25.507Z,101106.58
2019-06-20T13:11:13.543Z,101109.78
2019-06-20T13:14:02.223Z,101108.52
2019-06-20T13:16:50.265Z,101112.48
2019-06-20T13:19:39.132Z,101101.77
2019-06-20T13:22:25.908Z,101108.11
2019-06-20T13:25:14.015Z,101103.47
2019-06-20T13:28:01.850Z,101100.76
2019-06-20T13:30:52.077Z,101106.52
2019-06-20T13:33:39.628Z,101100.41
2019-06-20T13:36:26.739Z,101100.53
2019-06-20T13:39:14.310Z,101087.66
2019-06-20T13:42:02.593Z,101092.94
2019-06-20T13:44:50.732Z,101081.98
2019-06-20T13:47:38.850Z,101093.91
2019-06-20T13:50:26.256Z,101087.14
2019-06-20T13:53:14.347Z,101089.41
2019-06-20T13:56:02.379Z,101088.19
2019-06-20T13:58:51.259Z,101089.55
2019-06-20T14:01:40.208Z,101092.80
2019-06-20T14:04:26.144Z,101082.80
2019-06-20T14:07:14.642Z,101084.12
2019-06-20T14:10:02.720Z,101078.92
2019-06-20T14:12:50.195Z,101079.52
2019-06-20T14:15:38.077Z,101083.97
2019-06-20T14:18:25.942Z,101083.17
2019-06-20T14:21:13.847Z,101083.09
2019-06-20T14:24:01.371Z,101086.08
2019-06-20T14:26:50.690Z,101083.27
2019-06-20T14:29:37.985Z,101079.05
2019-06-20T14:32:25.740Z,101081.88
2019-06-20T14:35:14.279Z,101094.64
2019-06-20T14:38:02.778Z,101085.02
2019-06-20T14:40:52.417Z,101098.63
2019-06-20T14:43:38.799Z,101091.28
2019-06-20T14:46:26.459Z,101096.61
2019-06-20T14:49:14.541Z,101081.48
2019-06-20T14:52:02.308Z,101086.02
2019-06-20T14:54:50.041Z,101085.66
2019-06-20T14:57:40.736Z,101082.09
2019-06-20T15:00:28.862Z,101077.67
2019-06-20T15:03:16.390Z,101078.91
2019-06-20T15:06:04.494Z,101086.75
2019-06-20T15:09:00.242Z,101083.65
2019-06-20T15:11:39.756Z,101084.27
2019-06-20T15:14:27.324Z,101083.08
2019-06-20T15:17:15.213Z,101094.40
2019-06-20T15:20:03.117Z,101092.25
2019-06-20T15:22:52.555Z,101086.11
2019-06-20T15:25:38.890Z,101097.98
2019-06-20T15:28:26.361Z,101085.40
2019-06-20T15:31:14.048Z,101088.53
2019-06-20T15:34:01.675Z,101082.87
2019-06-20T15:36:50.276Z,101081.01
2019-06-20T15:39:37.450Z,101081.64
2019-06-20T15:42:26.130Z,101084.78
2019-06-20T15:45:13.706Z,101079.19
2019-06-20T15:48:01.453Z,101082.39
2019-06-20T15:50:49.897Z,101073.97
2019-06-20T15:53:38.175Z,101080.68
2019-06-20T15:56:25.415Z,101087.08
2019-06-20T15:59:13.391Z,101088.97
2019-06-20T16:02:01.206Z,101082.00
2019-06-20T16:04:49.611Z,101079.61
2019-06-20T16:07:37.447Z,101083.14
2019-06-20T16:10:25.779Z,101077.92
2019-06-20T16:13:13.532Z,101077.53
2019-06-20T16:16:01.267Z,101079.63
2019-06-20T16:18:48.680Z,101083.11
2019-06-20T16:21:36.432Z,101074.72
2019-06-20T16:24:24.460Z,101081.73
2019-06-20T16:27:12.279Z,101088.96
2019-06-20T16:29:59.843Z,101089.69
2019-06-20T16:32:48.175Z,101080.77
2019-06-20T16:35:35.885Z,101081.27
2019-06-20T16:38:23.452Z,101078.69
2019-06-20T16:41:11.001Z,101084.53
2019-06-20T16:43:59.335Z,101098.16
2019-06-20T16:46:47.512Z,101102.47
2019-06-20T16:49:35.081Z,101102.56
2019-06-20T16:52:22.651Z,101098.67
2019-06-20T16:55:11.263Z,101094.11
2019-06-20T16:57:59.297Z,101089.14
2019-06-20T17:00:47.316Z,101095.57
2019-06-20T17:03:41.737Z,101105.39
2019-06-20T17:06:22.472Z,101102.89
2019-06-20T17:09:10.732Z,101108.73
2019-06-20T17:11:58.679Z,101111.81
2019-06-20T17:14:46.135Z,101107.73
2019-06-20T17:17:34.390Z,101118.30
2019-06-20T17:20:22.932Z,101123.68
2019-06-20T17:23:10.857Z,101127.74
2019-06-20T17:26:01.443Z,101126.89
2019-06-20T17:28:46.741Z,101132.36
2019-06-20T17:31:34.596Z,101134.16
2019-06-20T17:34:22.578Z,101129.75
2019-06-20T17:37:10.529Z,101129.80
2019-06-20T17:39:58.233Z,101131.87
2019-06-20T17:42:46.020Z,101134.32
2019-06-20T17:45:33.625Z,101136.29
2019-06-20T17:48:21.481Z,101142.55
2019-06-20T17:51:09.194Z,101136.29
2019-06-20T17:53:56.963Z,101143.48
2019-06-20T17:56:44.600Z,101134.52
2019-06-20T17:59:32.583Z,101133.12
2019-06-20T18:02:20.885Z,101133.89
2019-06-20T18:05:09.144Z,101135.52
2019-06-20T18:07:57.330Z,101133.72
2019-06-20T18:10:44.922Z,101133.95
2019-06-20T18:13:33.206Z,101137.36
2019-06-20T18:16:25.305Z,101137.09
2019-06-20T18:19:08.780Z,101139.25
2019-06-20T18:21:56.451Z,101137.05
2019-06-20T18:24:44.236Z,101142.45
2019-06-20T18:27:32.586Z,101151.55
2019-06-20T18:30:22.352Z,101173.25
2019-06-20T18:33:10.302Z,101186.17
2019-06-20T18:35:58.168Z,101201.48
2019-06-20T18:38:46.023Z,101201.54
2019-06-20T18:41:34.234Z,101208.28
2019-06-20T18:44:21.879Z,101203.64
2019-06-20T18:47:09.882Z,101208.27
2019-06-20T18:49:57.683Z,101207.03
2019-06-20T18:52:52.168Z,101209.87
2019-06-20T18:55:33.413Z,101211.69
2019-06-20T18:58:21.107Z,101205.77
2019-06-20T19:01:08.785Z,101213.06
2019-06-20T19:03:56.704Z,101214.20
2019-06-20T19:06:44.372Z,101220.33
2019-06-20T19:09:32.779Z,101223.23
2019-06-20T19:12:20.772Z,101222.38
2019-06-20T19:15:08.549Z,101233.20
2019-06-20T19:17:56.296Z,101240.13
2019-06-20T19:20:44.105Z,101243.02
2019-06-20T19:23:32.666Z,101238.09
2019-06-20T19:26:20.332Z,101248.25
2019-06-20T19:29:08.593Z,101247.03
2019-06-20T19:31:56.165Z,101257.98
2019-06-20T19:34:43.874Z,101263.55
2019-06-20T19:37:32.183Z,101262.62
2019-06-20T19:40:19.768Z,101274.19
2019-06-20T19:43:07.335Z,101275.53
2019-06-20T19:45:55.029Z,101283.38
2019-06-20T19:48:43.129Z,101288.84
2019-06-20T19:51:31.008Z,101288.84
2019-06-20T19:54:19.002Z,101291.16
2019-06-20T19:57:06.465Z,101298.41
2019-06-20T19:59:54.157Z,101304.97
2019-06-20T20:02:42.098Z,101306.12
2019-06-20T20:05:30.508Z,101310.00
2019-06-20T20:08:18.477Z,101310.42
2019-06-20T20:11:06.115Z,101320.25
2019-06-20T20:13:54.097Z,101314.30
2019-06-20T20:16:42.354Z,101315.09
2019-06-20T20:19:29.858Z,101314.93
2019-06-20T20:22:17.544Z,101324.05
2019-06-20T20:25:06.348Z,101325.97
2019-06-20T20:27:54.096Z,101334.87
2019-06-20T20:30:41.973Z,101337.97
2019-06-20T20:33:30.204Z,101333.95
2019-06-20T20:36:24.887Z,101337.12
2019-06-20T20:39:06.753Z,101338.22
2019-06-20T20:41:54.355Z,101346.84
2019-06-20T20:44:41.976Z,101357.86
2019-06-20T20:47:29.757Z,101359.39
2019-06-20T20:50:17.438Z,101357.17
2019-06-20T20:53:04.980Z,101364.77
2019-06-20T20:55:52.789Z,101353.05
2019-06-20T20:58:40.589Z,101356.19
2019-06-20T21:01:30.217Z,101353.50
2019-06-20T21:04:17.773Z,101363.83
2019-06-20T21:07:05.662Z,101364.60
2019-06-20T21:09:54.072Z,101372.66
2019-06-20T21:12:42.470Z,101376.56
2019-06-20T21:15:30.319Z,101381.64
2019-06-20T21:18:18.591Z,101387.30
2019-06-20T21:21:06.866Z,101398.52
2019-06-20T21:23:54.733Z,101396.61
2019-06-20T21:26:49.589Z,101398.36
2019-06-20T21:29:30.130Z,101402.78
2019-06-20T21:32:18.036Z,101398.84
2019-06-20T21:35:08.827Z,101397.22
2019-06-20T21:37:56.761Z,101413.32
2019-06-20T21:40:44.434Z,101410.27
2019-06-20T21:43:32.361Z,101416.31
2019-06-20T21:46:20.828Z,101421.30
2019-06-20T21:49:08.763Z,101425.80
2019-06-20T21:51:56.606Z,101430.78
2019-06-20T21:54:44.540Z,101428.86
2019-06-20T21:57:32.846Z,101430.80
2019-06-20T22:00:22.668Z,101443.83
2019-06-20T22:03:10.219Z,101402.77
2019-06-20T22:05:58.394Z,101444.39
2019-06-20T22:08:46.389Z,101448.12
2019-06-20T22:11:34.786Z,101456.64
2019-06-20T22:14:22.928Z,101443.98
2019-06-20T22:17:11.337Z,101439.16
2019-06-20T22:19:58.934Z,101444.03
2019-06-20T22:22:46.982Z,101430.75
2019-06-20T22:25:34.781Z,101430.58
2019-06-20T22:28:22.275Z,101441.84
2019-06-20T22:31:10.238Z,101445.27
2019-06-20T22:33:57.750Z,101449.52
2019-06-20T22:36:46.208Z,101446.31
2019-06-20T22:39:34.397Z,101450.83
2019-06-20T22:42:21.910Z,101448.97
2019-06-20T22:45:09.638Z,101449.64
2019-06-20T22:47:57.678Z,101450.31
2019-06-20T22:50:45.413Z,101454.52
2019-06-20T22:53:33.034Z,101452.03
2019-06-20T22:56:20.845Z,101455.08
2019-06-20T22:59:08.948Z,101454.59
2019-06-20T23:01:56.387Z,101461.11
2019-06-20T23:04:44.690Z,101462.00
2019-06-20T23:07:32.550Z,101467.95
2019-06-20T23:10:20.131Z,101474.66
2019-06-20T23:13:08.208Z,101488.13
2019-06-20T23:15:55.833Z,101485.63
2019-06-20T23:18:44.106Z,101482.72
2019-06-20T23:21:32.049Z,101486.92
2019-06-20T23:24:19.562Z,101488.62
2019-06-20T23:27:07.856Z,101490.20
2019-06-20T23:29:55.806Z,101488.85
2019-06-20T23:32:43.840Z,101491.30
2019-06-20T23:35:31.327Z,101486.98
2019-06-20T23:38:19.436Z,101492.31
2019-06-20T23:41:07.310Z,101488.65
2019-06-20T23:43:55.289Z,101493.25
2019-06-20T23:46:43.105Z,101489.97
2019-06-20T23:49:30.760Z,101497.97
2019-06-20T23:52:20.151Z,101491.45
2019-06-20T23:55:07.892Z,101492.06
2019-06-20T23:57:55.510Z,101503.84
